createdAt,value
2022-09-04T00:00:14.269Z,92.41
2022-09-04T00:02:50.745Z,91.23
2022-09-04T00:05:20.532Z,90.96
2022-09-04T00:07:55.154Z,91.41
2022-09-04T00:10:22.459Z,91.90
2022-09-04T00:12:55.099Z,91.68
2022-09-04T00:15:35.010Z,90.57
2022-09-04T00:18:06.702Z,90.40
2022-09-04T00:20:34.373Z,90.66
2022-09-04T00:23:11.101Z,91.15
2022-09-04T00:25:50.653Z,90.50
2022-09-04T00:28:24.002Z,90.88
2022-09-04T00:31:12.681Z,91.23
2022-09-04T00:33:41.224Z,91.33
2022-09-04T00:36:08.485Z,92.61
2022-09-04T00:38:38.460Z,92.77
2022-09-04T00:41:16.676Z,91.30
2022-09-04T00:44:02.698Z,91.59
2022-09-04T00:46:48.675Z,91.60
2022-09-04T00:49:21.718Z,92.12
2022-09-04T00:51:48.853Z,92.91
2022-09-04T00:54:28.179Z,92.25
2022-09-04T00:57:00.079Z,91.03
2022-09-04T00:59:39.414Z,91.15
2022-09-04T01:02:18.738Z,91.85
2022-09-04T01:05:15.978Z,93.09
2022-09-04T01:07:47.225Z,94.11
2022-09-04T01:10:33.074Z,92.75
2022-09-04T01:13:00.700Z,92.92
2022-09-04T01:15:37.082Z,92.57
2022-09-04T01:18:06.850Z,92.65
2022-09-04T01:20:53.437Z,92.21
2022-09-04T01:23:31.664Z,93.18
2022-09-04T01:26:07.990Z,93.75
2022-09-04T01:28:36.841Z,93.47
2022-09-04T01:31:06.938Z,94.13
2022-09-04T01:33:46.337Z,94.27
2022-09-04T01:36:30.959Z,94.81
2022-09-04T01:38:58.911Z,94.83
2022-09-04T01:41:37.713Z,93.30
2022-09-04T01:44:09.064Z,93.70
2022-09-04T01:46:42.050Z,94.48
2022-09-04T01:49:27.398Z,95.04
2022-09-04T01:52:00.724Z,95.04
2022-09-04T01:54:27.827Z,95.61
2022-09-04T01:57:13.666Z,96.27
2022-09-04T01:59:50.751Z,96.40
2022-09-04T02:02:23.502Z,95.63
2022-09-04T02:04:56.564Z,95.21
2022-09-04T02:07:38.345Z,95.89
2022-09-04T02:10:25.210Z,95.94
2022-09-04T02:12:59.061Z,95.58
2022-09-04T02:15:45.088Z,95.60
2022-09-04T02:18:22.331Z,96.50
2022-09-04T02:21:05.862Z,96.45
2022-09-04T02:23:39.285Z,96.21
2022-09-04T02:26:09.254Z,95.61
2022-09-04T02:28:42.709Z,95.33
2022-09-04T02:31:21.830Z,95.97
2022-09-04T02:34:15.089Z,95.49
2022-09-04T02:36:44.089Z,95.19
2022-09-04T02:39:22.070Z,94.70
2022-09-04T02:41:58.290Z,94.99
2022-09-04T02:44:40.049Z,94.41
2022-09-04T02:47:18.495Z,94.48
2022-09-04T02:49:55.861Z,94.63
2022-09-04T02:52:36.308Z,94.24
2022-09-04T02:55:06.548Z,93.84
2022-09-04T02:57:55.154Z,94.39
2022-09-04T03:00:40.494Z,93.23
2022-09-04T03:03:15.282Z,93.10
2022-09-04T03:05:49.857Z,92.96
2022-09-04T03:08:30.160Z,93.98
2022-09-04T03:11:06.259Z,93.90
2022-09-04T03:13:36.834Z,94.00
2022-09-04T03:16:12.697Z,94.22
2022-09-04T03:18:39.834Z,94.86
2022-09-04T03:21:09.177Z,94.83
2022-09-04T03:23:39.901Z,95.70
2022-09-04T03:26:16.168Z,95.58
2022-09-04T03:29:03.100Z,95.05
2022-09-04T03:31:48.867Z,94.57
2022-09-04T03:34:20.592Z,93.61
2022-09-04T03:36:53.744Z,94.08
2022-09-04T03:39:39.799Z,93.93
2022-09-04T03:42:10.457Z,94.72
2022-09-04T03:44:40.765Z,95.75
2022-09-04T03:47:28.942Z,95.52
2022-09-04T03:50:05.863Z,94.66
2022-09-04T03:52:36.324Z,93.95
2022-09-04T03:55:21.987Z,93.49
2022-09-04T03:57:55.066Z,93.19
2022-09-04T04:00:22.204Z,92.52
2022-09-04T04:02:58.789Z,92.37
2022-09-04T04:05:26.871Z,92.86
2022-09-04T04:08:13.098Z,92.71
2022-09-04T04:10:45.742Z,93.17
2022-09-04T04:13:51.792Z,92.05
2022-09-04T04:16:24.834Z,92.04
2022-09-04T04:19:10.891Z,91.83
2022-09-04T04:21:56.601Z,92.03
2022-09-04T04:24:39.806Z,92.26
2022-09-04T04:27:23.641Z,92.57
2022-09-04T04:30:06.750Z,93.96
2022-09-04T04:32:36.827Z,91.88
2022-09-04T04:35:18.897Z,92.10
2022-09-04T04:38:04.615Z,92.50
2022-09-04T04:40:50.171Z,92.19
2022-09-04T04:43:20.390Z,92.66
2022-09-04T04:45:59.652Z,92.25
2022-09-04T04:48:45.330Z,93.05
2022-09-04T04:51:40.742Z,92.42
2022-09-04T04:54:14.084Z,92.40
2022-09-04T04:56:55.250Z,91.81
2022-09-04T04:59:23.628Z,92.32
2022-09-04T05:01:50.785Z,92.75
2022-09-04T05:04:30.258Z,91.49
2022-09-04T05:06:59.914Z,90.32
2022-09-04T05:09:37.803Z,90.58
2022-09-04T05:12:10.942Z,90.65
2022-09-04T05:14:44.024Z,91.67
2022-09-04T05:17:20.372Z,91.41
2022-09-04T05:19:52.576Z,89.78
2022-09-04T05:22:38.546Z,90.58
2022-09-04T05:25:11.420Z,90.80
2022-09-04T05:27:42.523Z,90.30
2022-09-04T05:30:09.647Z,89.47
2022-09-04T05:32:41.093Z,89.19
2022-09-04T05:35:08.455Z,89.05
2022-09-04T05:37:45.596Z,88.62
2022-09-04T05:40:31.626Z,88.15
2022-09-04T05:43:07.793Z,89.58
2022-09-04T05:45:49.959Z,89.87
2022-09-04T05:48:21.506Z,89.24
2022-09-04T05:50:54.879Z,89.47
2022-09-04T05:53:22.000Z,89.72
2022-09-04T05:55:55.487Z,89.80
2022-09-04T05:58:49.783Z,88.01
2022-09-04T06:01:40.095Z,88.49
2022-09-04T06:04:26.025Z,89.05
2022-09-04T06:06:59.097Z,88.81
2022-09-04T06:09:35.252Z,90.20
2022-09-04T06:12:05.273Z,89.69
2022-09-04T06:14:54.510Z,89.42
2022-09-04T06:17:26.326Z,88.13
2022-09-04T06:19:53.463Z,87.43
2022-09-04T06:22:37.441Z,87.17
2022-09-04T06:25:04.511Z,86.28
2022-09-04T06:27:35.566Z,87.45
2022-09-04T06:30:07.897Z,87.86
2022-09-04T06:32:35.653Z,87.60
2022-09-04T06:35:07.562Z,86.76
2022-09-04T06:37:38.298Z,85.47
2022-09-04T06:40:05.502Z,85.17
2022-09-04T06:42:42.576Z,86.05
2022-09-04T06:45:23.131Z,84.12
2022-09-04T06:48:09.669Z,84.40
2022-09-04T06:50:39.706Z,83.12
2022-09-04T06:53:06.785Z,84.03
2022-09-04T06:55:42.604Z,82.69
2022-09-04T06:58:24.897Z,83.13
2022-09-04T07:00:57.393Z,83.04
2022-09-04T07:03:31.386Z,82.22
2022-09-04T07:06:05.372Z,82.04
2022-09-04T07:08:53.015Z,81.50
2022-09-04T07:11:26.697Z,80.82
2022-09-04T07:14:03.312Z,81.02
2022-09-04T07:16:39.612Z,81.79
2022-09-04T07:19:17.093Z,80.94
2022-09-04T07:21:48.751Z,80.31
2022-09-04T07:24:27.832Z,79.73
2022-09-04T07:27:21.136Z,80.61
2022-09-04T07:30:08.489Z,80.16
2022-09-04T07:32:36.091Z,77.82
2022-09-04T07:35:07.965Z,78.35
2022-09-04T07:37:36.708Z,78.29
2022-09-04T07:40:08.081Z,77.10
2022-09-04T07:42:41.724Z,77.23
2022-09-04T07:45:08.888Z,77.44
2022-09-04T07:47:46.039Z,76.58
2022-09-04T07:50:14.784Z,75.86
2022-09-04T07:52:42.779Z,78.00
2022-09-04T07:55:09.863Z,77.25
2022-09-04T07:57:36.976Z,76.82
2022-09-04T08:00:06.975Z,76.92
2022-09-04T08:02:53.213Z,76.57
2022-09-04T08:05:24.432Z,75.22
2022-09-04T08:07:59.223Z,74.87
2022-09-04T08:10:30.528Z,73.35
2022-09-04T08:13:03.842Z,72.92
2022-09-04T08:15:50.080Z,73.04
2022-09-04T08:18:23.118Z,72.95
2022-09-04T08:21:12.587Z,71.18
2022-09-04T08:23:58.097Z,71.52
2022-09-04T08:26:34.239Z,70.05
2022-09-04T08:29:13.618Z,71.69
2022-09-04T08:31:54.046Z,71.85
2022-09-04T08:34:30.413Z,69.42
2022-09-04T08:37:00.343Z,67.40
2022-09-04T08:39:33.430Z,66.10
2022-09-04T08:42:18.934Z,70.72
2022-09-04T08:45:04.958Z,69.11
2022-09-04T08:47:51.642Z,70.87
2022-09-04T08:50:29.896Z,71.66
2022-09-04T08:53:18.198Z,71.05
2022-09-04T08:55:48.053Z,69.39
2022-09-04T08:58:15.125Z,70.59
2022-09-04T09:01:01.378Z,71.09
2022-09-04T09:03:35.273Z,69.85
2022-09-04T09:06:06.725Z,68.76
2022-09-04T09:08:46.293Z,68.83
2022-09-04T09:11:25.659Z,67.97
2022-09-04T09:14:01.963Z,68.46
2022-09-04T09:16:42.831Z,65.91
2022-09-04T09:19:19.327Z,67.49
2022-09-04T09:21:50.010Z,66.73
2022-09-04T09:24:35.747Z,65.73
2022-09-04T09:27:14.841Z,62.62
2022-09-04T09:29:45.167Z,63.89
2022-09-04T09:32:22.178Z,65.92
2022-09-04T09:34:49.314Z,63.35
2022-09-04T09:37:25.593Z,64.63
2022-09-04T09:40:09.582Z,63.14
2022-09-04T09:42:38.014Z,61.52
2022-09-04T09:45:08.815Z,63.23
2022-09-04T09:47:44.844Z,65.75
2022-09-04T09:50:14.892Z,64.02
2022-09-04T09:52:44.817Z,64.83
2022-09-04T09:55:11.929Z,63.69
2022-09-04T09:57:57.939Z,61.98
2022-09-04T10:00:27.580Z,63.52
2022-09-04T10:03:14.075Z,65.24
2022-09-04T10:05:49.699Z,63.88
2022-09-04T10:08:36.347Z,64.89
2022-09-04T10:11:06.601Z,61.42
2022-09-04T10:13:33.801Z,59.70
2022-09-04T10:16:16.171Z,62.26
2022-09-04T10:18:49.711Z,59.61
2022-09-04T10:21:29.036Z,59.72
2022-09-04T10:24:05.979Z,61.06
2022-09-04T10:26:39.431Z,55.81
2022-09-04T10:29:10.163Z,52.25
2022-09-04T10:31:49.739Z,49.10
2022-09-04T10:34:24.213Z,50.14
2022-09-04T10:37:04.925Z,56.33
2022-09-04T10:40:29.285Z,58.40
2022-09-04T10:43:11.872Z,61.33
2022-09-04T10:45:54.968Z,63.50
2022-09-04T10:48:26.574Z,62.34
2022-09-04T10:51:19.339Z,63.63
2022-09-04T10:53:57.663Z,63.80
2022-09-04T10:56:34.428Z,64.46
2022-09-04T10:59:11.008Z,64.72
2022-09-04T11:01:41.040Z,62.36
2022-09-04T11:04:25.656Z,64.86
2022-09-04T11:07:02.319Z,63.54
2022-09-04T11:09:41.870Z,62.39
2022-09-04T11:12:23.627Z,62.96
2022-09-04T11:15:09.072Z,63.88
2022-09-04T11:17:51.295Z,66.06
2022-09-04T11:20:39.649Z,65.39
2022-09-04T11:23:07.236Z,64.16
2022-09-04T11:26:02.927Z,65.43
2022-09-04T11:28:40.395Z,65.61
2022-09-04T11:31:14.831Z,65.85
2022-09-04T11:34:01.526Z,65.66
2022-09-04T11:36:35.517Z,65.86
2022-09-04T11:39:11.529Z,66.28
2022-09-04T11:41:57.331Z,64.54
2022-09-04T11:44:28.615Z,64.37
2022-09-04T11:47:00.732Z,66.04
2022-09-04T11:49:46.456Z,65.68
2022-09-04T11:52:28.300Z,67.44
2022-09-04T11:54:55.711Z,68.83
2022-09-04T11:57:22.897Z,70.09
2022-09-04T11:59:56.759Z,70.10
2022-09-04T12:02:42.769Z,68.40
2022-09-04T12:05:19.009Z,68.58
2022-09-04T12:07:46.388Z,67.51
2022-09-04T12:10:16.782Z,67.21
2022-09-04T12:12:50.834Z,67.15
2022-09-04T12:15:18.071Z,65.98
2022-09-04T12:17:57.487Z,63.85
2022-09-04T12:20:33.482Z,63.10
2022-09-04T12:23:19.262Z,61.84
2022-09-04T12:26:03.224Z,61.47
2022-09-04T12:28:45.776Z,61.07
2022-09-04T12:31:35.238Z,59.86
2022-09-04T12:34:32.021Z,60.62
2022-09-04T12:37:08.299Z,60.90
2022-09-04T12:39:38.387Z,60.71
2022-09-04T12:42:13.973Z,62.50
2022-09-04T12:44:42.059Z,63.51
2022-09-04T12:47:14.153Z,60.44
2022-09-04T12:49:49.096Z,61.55
2022-09-04T12:52:19.201Z,62.72
2022-09-04T12:55:04.133Z,63.80
2022-09-04T12:57:32.983Z,63.99
2022-09-04T13:00:12.353Z,64.51
2022-09-04T13:02:46.926Z,64.29
2022-09-04T13:05:14.058Z,67.28
2022-09-04T13:07:51.649Z,66.14
2022-09-04T13:10:25.109Z,67.37
2022-09-04T13:12:52.524Z,67.45
2022-09-04T13:15:39.837Z,68.37
2022-09-04T13:18:25.662Z,66.73
2022-09-04T13:21:13.020Z,66.97
2022-09-04T13:23:46.768Z,65.22
2022-09-04T13:26:37.057Z,61.75
2022-09-04T13:29:17.006Z,58.07
2022-09-04T13:31:54.406Z,58.40
2022-09-04T13:34:29.110Z,54.50
2022-09-04T13:37:12.082Z,56.79
2022-09-04T13:39:39.205Z,56.13
2022-09-04T13:42:19.494Z,54.21
2022-09-04T13:45:06.886Z,55.71
2022-09-04T13:48:00.481Z,57.73
2022-09-04T13:50:32.364Z,58.31
2022-09-04T13:53:20.583Z,61.66
2022-09-04T13:55:50.027Z,60.88
2022-09-04T13:58:19.987Z,63.07
2022-09-04T14:00:49.476Z,62.46
2022-09-04T14:03:36.783Z,64.45
2022-09-04T14:06:05.552Z,64.32
2022-09-04T14:08:34.742Z,62.34
2022-09-04T14:11:19.753Z,66.19
2022-09-04T14:13:46.843Z,61.65
2022-09-04T14:16:14.995Z,61.19
2022-09-04T14:18:50.011Z,63.47
2022-09-04T14:21:26.213Z,61.92
2022-09-04T14:23:55.428Z,64.05
2022-09-04T14:26:24.585Z,66.62
2022-09-04T14:29:00.903Z,64.08
2022-09-04T14:31:38.117Z,64.29
2022-09-04T14:34:13.852Z,65.39
2022-09-04T14:36:56.481Z,63.75
2022-09-04T14:39:27.551Z,63.34
2022-09-04T14:42:03.913Z,64.00
2022-09-04T14:44:35.774Z,63.66
2022-09-04T14:47:10.073Z,61.34
2022-09-04T14:49:41.830Z,64.15
2022-09-04T14:52:19.677Z,62.43
2022-09-04T14:54:47.035Z,63.76
2022-09-04T14:57:33.625Z,63.02
2022-09-04T15:00:19.965Z,62.59
2022-09-04T15:02:59.817Z,63.33
2022-09-04T15:05:29.490Z,61.20
2022-09-04T15:08:20.281Z,62.38
2022-09-04T15:10:50.019Z,61.17
2022-09-04T15:13:36.090Z,63.91
2022-09-04T15:16:06.729Z,62.11
2022-09-04T15:18:40.008Z,61.94
2022-09-04T15:21:21.464Z,64.56
2022-09-04T15:23:53.119Z,64.05
2022-09-04T15:26:23.332Z,64.65
2022-09-04T15:28:51.656Z,65.42
2022-09-04T15:31:28.578Z,61.98
2022-09-04T15:34:03.232Z,63.17
2022-09-04T15:36:30.447Z,60.32
2022-09-04T15:38:57.957Z,61.31
2022-09-04T15:41:28.585Z,61.10
2022-09-04T15:43:58.391Z,63.11
2022-09-04T15:46:25.867Z,63.10
2022-09-04T15:49:09.138Z,61.19
2022-09-04T15:51:41.735Z,63.56
2022-09-04T15:54:08.865Z,62.76
2022-09-04T15:56:37.082Z,64.82
2022-09-04T15:59:10.379Z,66.27
2022-09-04T16:01:46.322Z,65.32
2022-09-04T16:04:42.302Z,65.82
2022-09-04T16:07:20.410Z,67.29
2022-09-04T16:09:53.206Z,67.19
2022-09-04T16:12:31.574Z,68.33
2022-09-04T16:15:03.618Z,68.11
2022-09-04T16:17:32.200Z,68.26
2022-09-04T16:20:08.308Z,70.47
2022-09-04T16:22:58.591Z,69.33
2022-09-04T16:25:29.055Z,69.99
2022-09-04T16:28:02.467Z,70.24
2022-09-04T16:30:30.287Z,72.42
2022-09-04T16:32:57.714Z,73.55
2022-09-04T16:35:24.887Z,72.77
2022-09-04T16:38:04.252Z,72.79
2022-09-04T16:40:48.749Z,72.04
2022-09-04T16:43:21.642Z,75.29
2022-09-04T16:45:51.079Z,74.32
2022-09-04T16:48:34.891Z,75.42
2022-09-04T16:51:25.052Z,74.34
2022-09-04T16:53:58.937Z,75.36
2022-09-04T16:56:36.939Z,75.72
2022-09-04T16:59:21.777Z,75.99
2022-09-04T17:02:00.052Z,76.20
2022-09-04T17:04:42.689Z,76.67
2022-09-04T17:07:31.180Z,76.72
2022-09-04T17:10:02.009Z,77.25
2022-09-04T17:12:41.131Z,77.38
2022-09-04T17:15:21.946Z,77.42
2022-09-04T17:17:51.154Z,77.81
2022-09-04T17:20:47.130Z,77.21
2022-09-04T17:28:57.523Z,77.71
2022-09-04T17:29:18.569Z,78.27
2022-09-04T17:29:34.957Z,78.39
2022-09-04T17:32:55.591Z,79.30
2022-09-04T17:40:39.970Z,79.29
2022-09-04T17:40:53.992Z,79.42
2022-09-04T17:41:35.843Z,79.88
2022-09-04T17:44:03.827Z,80.52
2022-09-04T17:46:36.740Z,80.47
2022-09-04T17:49:14.593Z,80.15
2022-09-04T17:51:43.235Z,80.30
2022-09-04T17:54:11.822Z,80.16
2022-09-04T17:56:45.279Z,80.94
2022-09-04T17:59:20.984Z,80.85
2022-09-04T18:01:51.241Z,81.38
2022-09-04T18:04:33.775Z,81.83
2022-09-04T18:07:56.867Z,81.50
2022-09-04T18:10:04.086Z,81.65
2022-09-04T18:12:31.362Z,81.82
2022-09-04T18:15:27.631Z,82.36
2022-09-04T18:17:52.826Z,82.19
2022-09-04T18:20:37.517Z,82.16
2022-09-04T18:23:19.681Z,82.69
2022-09-04T18:25:59.374Z,82.43
2022-09-04T18:28:28.671Z,83.16
2022-09-04T18:37:07.125Z,82.70
2022-09-04T18:37:17.026Z,83.30
2022-09-04T18:37:45.661Z,82.65
2022-09-04T18:39:59.906Z,83.41
2022-09-04T18:50:29.024Z,83.55
2022-09-04T18:50:38.511Z,83.54
2022-09-04T18:50:40.609Z,83.88
2022-09-04T18:51:20.045Z,83.79
2022-09-04T18:53:48.045Z,84.22
2022-09-04T18:56:44.627Z,84.16
2022-09-04T18:59:19.184Z,84.62
2022-09-04T19:01:58.120Z,84.22
2022-09-04T19:04:58.942Z,84.28
2022-09-04T19:07:31.844Z,84.31
2022-09-04T19:09:59.049Z,84.50
2022-09-04T19:12:36.947Z,84.54
2022-09-04T19:15:43.893Z,85.16
2022-09-04T19:18:23.445Z,85.12
2022-09-04T19:20:52.304Z,85.05
2022-09-04T19:23:22.762Z,84.76
2022-09-04T19:25:54.714Z,85.24
2022-09-04T19:28:23.967Z,85.21
2022-09-04T19:30:51.125Z,85.43
2022-09-04T19:33:22.270Z,85.46
2022-09-04T19:35:53.900Z,85.65
2022-09-04T19:45:24.946Z,85.69
2022-09-04T19:46:06.920Z,85.80
2022-09-04T19:46:17.276Z,85.24
2022-09-04T19:47:09.620Z,85.55
2022-09-04T19:53:29.619Z,86.24
2022-09-04T19:53:33.144Z,86.17
2022-09-04T19:55:40.425Z,85.62
2022-09-04T19:58:11.505Z,85.69
2022-09-04T20:01:08.146Z,85.95
2022-09-04T20:03:56.262Z,86.17
2022-09-04T20:06:23.402Z,86.24
2022-09-04T20:08:52.907Z,86.28
2022-09-04T20:11:32.399Z,86.04
2022-09-04T20:14:13.679Z,86.04
2022-09-04T20:16:48.255Z,86.16
2022-09-04T20:19:37.433Z,86.59
2022-09-04T20:22:13.164Z,86.83
2022-09-04T20:25:01.858Z,87.01
2022-09-04T20:27:50.346Z,87.27
2022-09-04T20:30:24.959Z,87.39
2022-09-04T20:32:56.582Z,87.87
2022-09-04T20:35:32.955Z,88.12
2022-09-04T20:38:16.173Z,87.63
2022-09-04T20:41:11.007Z,87.25
2022-09-04T20:43:47.389Z,87.36
2022-09-04T20:52:50.656Z,87.56
2022-09-04T20:52:51.025Z,86.96
2022-09-04T20:52:58.853Z,87.27
2022-09-04T20:55:22.045Z,87.78
2022-09-04T21:03:09.941Z,87.54
2022-09-04T21:03:18.414Z,87.52
2022-09-04T21:04:17.536Z,87.58
2022-09-04T21:07:19.590Z,88.44
2022-09-04T21:09:54.930Z,88.14
2022-09-04T21:12:40.527Z,87.65
2022-09-04T21:15:07.949Z,87.16
2022-09-04T21:17:41.324Z,88.22
2022-09-04T21:20:17.670Z,87.89
2022-09-04T21:22:44.741Z,87.75
2022-09-04T21:25:30.627Z,87.67
2022-09-04T21:28:06.962Z,88.02
2022-09-04T21:30:52.747Z,87.86
2022-09-04T21:33:28.128Z,87.65
2022-09-04T21:36:26.272Z,87.72
2022-09-04T21:39:13.422Z,87.76
2022-09-04T21:41:40.565Z,87.65
2022-09-04T21:44:13.918Z,87.96
2022-09-04T21:46:48.202Z,88.29
2022-09-04T21:49:26.623Z,87.87
2022-09-04T21:52:06.580Z,88.02
2022-09-04T21:57:13.546Z,88.25
2022-09-04T22:02:27.319Z,88.28
2022-09-04T22:02:35.825Z,88.09
2022-09-04T22:04:09.116Z,88.00
2022-09-04T22:11:19.426Z,88.28
2022-09-04T22:13:39.195Z,88.19
2022-09-04T22:13:43.727Z,88.29
2022-09-04T22:15:23.148Z,88.60
2022-09-04T22:18:17.342Z,88.80
2022-09-04T22:21:02.546Z,88.22
2022-09-04T22:23:48.294Z,88.49
2022-09-04T22:26:23.834Z,88.29
2022-09-04T22:28:54.647Z,88.42
2022-09-04T22:31:24.944Z,88.22
2022-09-04T22:34:15.750Z,88.21
2022-09-04T22:36:59.134Z,88.20
2022-09-04T22:39:32.406Z,88.01
2022-09-04T22:41:59.603Z,88.12
2022-09-04T22:44:29.440Z,88.13
2022-09-04T22:47:22.371Z,87.92
2022-09-04T22:49:49.499Z,87.67
2022-09-04T22:52:22.555Z,87.60
2022-09-04T22:55:36.174Z,88.01
2022-09-04T22:58:06.320Z,88.15
2022-09-04T23:00:40.438Z,88.19
2022-09-04T23:03:11.448Z,89.66
2022-09-04T23:05:50.811Z,92.37
2022-09-04T23:13:53.094Z,93.80
2022-09-04T23:13:58.174Z,91.86
2022-09-04T23:15:08.523Z,90.49
2022-09-04T23:17:51.086Z,91.22
2022-09-04T23:26:36.978Z,91.59
2022-09-04T23:26:49.025Z,91.81
2022-09-04T23:29:11.326Z,91.98
2022-09-04T23:31:46.780Z,91.83
2022-09-04T23:34:18.569Z,91.56
2022-09-04T23:37:08.654Z,91.34
2022-09-04T23:39:42.446Z,92.07
2022-09-04T23:42:18.547Z,91.78
2022-09-04T23:44:50.601Z,91.87
2022-09-04T23:47:46.516Z,92.00
2022-09-04T23:50:17.870Z,91.82
2022-09-04T23:53:03.705Z,91.92
2022-09-04T23:55:49.926Z,92.01
2022-09-04T23:58:57.971Z,92.43
